Terminal Aerodrome Forecast
Issued by NWS

Home | Current Version | Previous Version | Text Only | Print | Product List | Glossary On
Versions: 1 2 3 4 5 6 7 8 9 10 11 12
000
FTUS45 KRIW 250529
TAFLND
TAF
KLND 250529Z 2506/2606 29006KT P6SM SCT120 BKN200
     FM251000 VRB05KT P6SM BKN120
     FM251900 VRB12G20KT P6SM VCTS SCT060CB BKN090
     FM260100 VRB06KT P6SM -SHRA BKN070
     FM260500 VRB05KT P6SM VCSH BKN080=

USA.gov is the U.S. government's official web portal to all federal, state and local government web resources and services.